Terminal Aerodrome Forecast
Issued by NWS Grand Forks, ND

Home | Current Version | Previous Version | Text Only | Print | Product List | Glossary Off
Versions: 1 2 3 4 5 6 7 8 9 10 11 12 13 14 15 16 17 18

000
FTUS43 KFGF 061720
TAFGFK
TAF
KGFK 061720Z 0618/0718 34013G22KT P6SM BKN035 BKN120
     FM070200 VRB05KT 3SM HZ SKC=

USA.gov is the U.S. government's official web portal to all federal, state and local government web resources and services.